sensor_id;sensor_type;location;lat;lon;timestamp;temperature;humidity
44990;DHT22;30723;51.206;3.326;2024-03-06T00:01:52;7.90;99.90
44990;DHT22;30723;51.206;3.326;2024-03-06T00:04:18;7.90;99.90
44990;DHT22;30723;51.206;3.326;2024-03-06T00:06:44;7.90;99.90
44990;DHT22;30723;51.206;3.326;2024-03-06T00:09:09;7.90;99.90
44990;DHT22;30723;51.206;3.326;2024-03-06T00:11:35;7.90;99.90
44990;DHT22;30723;51.206;3.326;2024-03-06T00:14:02;7.90;99.90
44990;DHT22;30723;51.206;3.326;2024-03-06T00:16:28;7.90;99.90
44990;DHT22;30723;51.206;3.326;2024-03-06T00:18:54;7.90;99.90
44990;DHT22;30723;51.206;3.326;2024-03-06T00:21:19;7.80;99.90
44990;DHT22;30723;51.206;3.326;2024-03-06T00:23:45;7.80;99.90
44990;DHT22;30723;51.206;3.326;2024-03-06T00:26:14;7.80;99.90
44990;DHT22;30723;51.206;3.326;2024-03-06T00:28:39;7.70;99.90
44990;DHT22;30723;51.206;3.326;2024-03-06T00:31:05;7.70;99.90
44990;DHT22;30723;51.206;3.326;2024-03-06T00:33:31;7.70;99.90
44990;DHT22;30723;51.206;3.326;2024-03-06T00:35:57;7.70;99.90
44990;DHT22;30723;51.206;3.326;2024-03-06T00:38:22;7.70;99.90
44990;DHT22;30723;51.206;3.326;2024-03-06T00:40:48;7.70;99.90
44990;DHT22;30723;51.206;3.326;2024-03-06T00:43:15;7.60;99.90
44990;DHT22;30723;51.206;3.326;2024-03-06T00:45:40;7.60;99.90
44990;DHT22;30723;51.206;3.326;2024-03-06T00:48:07;7.60;99.90
44990;DHT22;30723;51.206;3.326;2024-03-06T00:50:33;7.60;99.90
44990;DHT22;30723;51.206;3.326;2024-03-06T00:52:59;7.60;99.90
44990;DHT22;30723;51.206;3.326;2024-03-06T00:55:27;7.50;99.90
44990;DHT22;30723;51.206;3.326;2024-03-06T00:57:53;7.50;99.90
44990;DHT22;30723;51.206;3.326;2024-03-06T01:00:19;7.50;99.90
44990;DHT22;30723;51.206;3.326;2024-03-06T01:02:45;7.40;99.90
44990;DHT22;30723;51.206;3.326;2024-03-06T01:05:11;7.40;99.90
44990;DHT22;30723;51.206;3.326;2024-03-06T01:07:40;7.30;99.90
44990;DHT22;30723;51.206;3.326;2024-03-06T01:10:06;7.30;99.90
44990;DHT22;30723;51.206;3.326;2024-03-06T01:12:33;7.30;99.90
44990;DHT22;30723;51.206;3.326;2024-03-06T01:14:58;7.40;99.90
44990;DHT22;30723;51.206;3.326;2024-03-06T01:17:24;7.40;99.90
44990;DHT22;30723;51.206;3.326;2024-03-06T01:19:50;7.30;99.90
44990;DHT22;30723;51.206;3.326;2024-03-06T01:22:16;7.30;99.90
44990;DHT22;30723;51.206;3.326;2024-03-06T01:24:42;7.30;99.90
44990;DHT22;30723;51.206;3.326;2024-03-06T01:27:08;7.40;99.90
44990;DHT22;30723;51.206;3.326;2024-03-06T01:29:34;7.40;99.90
44990;DHT22;30723;51.206;3.326;2024-03-06T01:32:00;7.30;99.90
44990;DHT22;30723;51.206;3.326;2024-03-06T01:34:26;7.20;99.90
44990;DHT22;30723;51.206;3.326;2024-03-06T01:36:55;7.20;99.90
44990;DHT22;30723;51.206;3.326;2024-03-06T01:39:21;7.20;99.90
44990;DHT22;30723;51.206;3.326;2024-03-06T01:41:49;7.10;99.90
44990;DHT22;30723;51.206;3.326;2024-03-06T01:44:16;7.10;99.90
44990;DHT22;30723;51.206;3.326;2024-03-06T01:46:43;7.10;99.90
44990;DHT22;30723;51.206;3.326;2024-03-06T01:49:09;7.10;99.90
44990;DHT22;30723;51.206;3.326;2024-03-06T01:51:35;7.00;99.90
44990;DHT22;30723;51.206;3.326;2024-03-06T01:54:01;7.00;99.90
44990;DHT22;30723;51.206;3.326;2024-03-06T01:56:34;7.00;99.90
44990;DHT22;30723;51.206;3.326;2024-03-06T01:59:01;7.00;99.90
44990;DHT22;30723;51.206;3.326;2024-03-06T02:01:28;7.00;99.90
44990;DHT22;30723;51.206;3.326;2024-03-06T02:03:54;7.00;99.90
44990;DHT22;30723;51.206;3.326;2024-03-06T02:06:21;7.00;99.90
44990;DHT22;30723;51.206;3.326;2024-03-06T02:08:47;6.90;99.90
44990;DHT22;30723;51.206;3.326;2024-03-06T02:11:13;6.90;99.90
44990;DHT22;30723;51.206;3.326;2024-03-06T02:13:41;6.90;99.90
44990;DHT22;30723;51.206;3.326;2024-03-06T02:16:07;6.90;99.90
44990;DHT22;30723;51.206;3.326;2024-03-06T02:18:33;6.80;99.90
44990;DHT22;30723;51.206;3.326;2024-03-06T02:20:58;7.00;99.90
44990;DHT22;30723;51.206;3.326;2024-03-06T02:23:24;7.00;99.90
44990;DHT22;30723;51.206;3.326;2024-03-06T02:25:50;6.90;99.90
44990;DHT22;30723;51.206;3.326;2024-03-06T02:28:16;7.00;99.90
44990;DHT22;30723;51.206;3.326;2024-03-06T02:30:43;7.00;99.90
44990;DHT22;30723;51.206;3.326;2024-03-06T02:33:09;7.10;99.90
44990;DHT22;30723;51.206;3.326;2024-03-06T02:35:38;7.00;99.90
44990;DHT22;30723;51.206;3.326;2024-03-06T02:38:05;7.00;99.90
44990;DHT22;30723;51.206;3.326;2024-03-06T02:40:31;6.90;99.90
44990;DHT22;30723;51.206;3.326;2024-03-06T02:42:57;6.80;99.90
44990;DHT22;30723;51.206;3.326;2024-03-06T02:45:23;6.70;99.90
44990;DHT22;30723;51.206;3.326;2024-03-06T02:47:49;6.70;99.90
44990;DHT22;30723;51.206;3.326;2024-03-06T02:50:15;6.70;99.90
44990;DHT22;30723;51.206;3.326;2024-03-06T02:52:41;6.60;99.90
44990;DHT22;30723;51.206;3.326;2024-03-06T02:55:07;6.70;99.90
44990;DHT22;30723;51.206;3.326;2024-03-06T02:57:33;6.70;99.90
44990;DHT22;30723;51.206;3.326;2024-03-06T03:00:01;6.70;99.90
44990;DHT22;30723;51.206;3.326;2024-03-06T03:02:27;6.70;99.90
44990;DHT22;30723;51.206;3.326;2024-03-06T03:04:53;6.80;99.90
44990;DHT22;30723;51.206;3.326;2024-03-06T03:07:19;6.90;99.90
44990;DHT22;30723;51.206;3.326;2024-03-06T03:09:45;6.80;99.90
44990;DHT22;30723;51.206;3.326;2024-03-06T03:12:11;6.70;99.90
44990;DHT22;30723;51.206;3.326;2024-03-06T03:14:37;6.70;99.90
44990;DHT22;30723;51.206;3.326;2024-03-06T03:17:03;6.60;99.90
44990;DHT22;30723;51.206;3.326;2024-03-06T03:19:31;6.50;99.90
44990;DHT22;30723;51.206;3.326;2024-03-06T03:21:57;6.50;99.90
44990;DHT22;30723;51.206;3.326;2024-03-06T03:24:24;6.50;99.90
44990;DHT22;30723;51.206;3.326;2024-03-06T03:26:53;6.50;99.90
44990;DHT22;30723;51.206;3.326;2024-03-06T03:29:19;6.40;99.90
44990;DHT22;30723;51.206;3.326;2024-03-06T03:31:46;6.30;99.90
44990;DHT22;30723;51.206;3.326;2024-03-06T03:34:12;6.30;99.90
44990;DHT22;30723;51.206;3.326;2024-03-06T03:36:44;6.30;99.90
44990;DHT22;30723;51.206;3.326;2024-03-06T03:39:11;6.30;99.90
44990;DHT22;30723;51.206;3.326;2024-03-06T03:41:46;6.40;99.90
44990;DHT22;30723;51.206;3.326;2024-03-06T03:44:16;6.40;99.90
44990;DHT22;30723;51.206;3.326;2024-03-06T03:46:43;6.30;99.90
44990;DHT22;30723;51.206;3.326;2024-03-06T03:49:09;6.40;99.90
44990;DHT22;30723;51.206;3.326;2024-03-06T03:51:35;6.30;99.90
44990;DHT22;30723;51.206;3.326;2024-03-06T03:54:02;6.30;99.90
44990;DHT22;30723;51.206;3.326;2024-03-06T03:56:28;6.30;99.90
44990;DHT22;30723;51.206;3.326;2024-03-06T03:58:54;6.30;99.90
44990;DHT22;30723;51.206;3.326;2024-03-06T04:01:20;6.30;99.90
44990;DHT22;30723;51.206;3.326;2024-03-06T04:03:46;6.30;99.90
44990;DHT22;30723;51.206;3.326;2024-03-06T04:06:11;6.20;99.90
44990;DHT22;30723;51.206;3.326;2024-03-06T04:08:37;6.20;99.90
44990;DHT22;30723;51.206;3.326;2024-03-06T04:11:05;6.20;99.90
44990;DHT22;30723;51.206;3.326;2024-03-06T04:13:35;6.20;99.90
44990;DHT22;30723;51.206;3.326;2024-03-06T04:16:01;6.20;99.90
44990;DHT22;30723;51.206;3.326;2024-03-06T04:18:29;6.30;99.90
44990;DHT22;30723;51.206;3.326;2024-03-06T04:20:55;6.40;99.90
44990;DHT22;30723;51.206;3.326;2024-03-06T04:23:20;6.60;99.90
44990;DHT22;30723;51.206;3.326;2024-03-06T04:25:46;6.60;99.90
44990;DHT22;30723;51.206;3.326;2024-03-06T04:28:12;6.60;99.90
44990;DHT22;30723;51.206;3.326;2024-03-06T04:30:38;6.50;99.90
44990;DHT22;30723;51.206;3.326;2024-03-06T04:33:04;6.50;99.90
44990;DHT22;30723;51.206;3.326;2024-03-06T04:35:30;6.70;99.90
44990;DHT22;30723;51.206;3.326;2024-03-06T04:37:55;6.70;99.90
44990;DHT22;30723;51.206;3.326;2024-03-06T04:40:21;6.70;99.90
44990;DHT22;30723;51.206;3.326;2024-03-06T04:42:48;6.70;99.90
44990;DHT22;30723;51.206;3.326;2024-03-06T04:45:17;6.80;99.90
44990;DHT22;30723;51.206;3.326;2024-03-06T04:47:43;6.80;99.90
44990;DHT22;30723;51.206;3.326;2024-03-06T04:50:12;6.90;99.90
44990;DHT22;30723;51.206;3.326;2024-03-06T04:52:40;6.90;99.90
44990;DHT22;30723;51.206;3.326;2024-03-06T04:55:07;6.90;99.90
44990;DHT22;30723;51.206;3.326;2024-03-06T04:57:34;7.00;99.90
44990;DHT22;30723;51.206;3.326;2024-03-06T05:00:00;7.10;99.90
44990;DHT22;30723;51.206;3.326;2024-03-06T05:02:28;7.10;99.90
44990;DHT22;30723;51.206;3.326;2024-03-06T05:04:54;7.10;99.90
44990;DHT22;30723;51.206;3.326;2024-03-06T05:07:22;7.10;99.90
44990;DHT22;30723;51.206;3.326;2024-03-06T05:09:48;7.10;99.90
44990;DHT22;30723;51.206;3.326;2024-03-06T05:12:13;7.10;99.90
44990;DHT22;30723;51.206;3.326;2024-03-06T05:14:39;7.10;99.90
44990;DHT22;30723;51.206;3.326;2024-03-06T05:17:05;7.20;99.90
44990;DHT22;30723;51.206;3.326;2024-03-06T05:19:31;7.20;99.90
44990;DHT22;30723;51.206;3.326;2024-03-06T05:22:00;7.20;99.90
44990;DHT22;30723;51.206;3.326;2024-03-06T05:24:26;7.30;99.90
44990;DHT22;30723;51.206;3.326;2024-03-06T05:26:51;7.20;99.90
44990;DHT22;30723;51.206;3.326;2024-03-06T05:29:17;7.20;99.90
44990;DHT22;30723;51.206;3.326;2024-03-06T05:31:43;7.30;99.90
44990;DHT22;30723;51.206;3.326;2024-03-06T05:34:09;7.30;99.90
44990;DHT22;30723;51.206;3.326;2024-03-06T05:36:34;7.20;99.90
44990;DHT22;30723;51.206;3.326;2024-03-06T05:39:00;7.20;99.90
44990;DHT22;30723;51.206;3.326;2024-03-06T05:41:26;7.20;99.90
44990;DHT22;30723;51.206;3.326;2024-03-06T05:43:52;7.20;99.90
44990;DHT22;30723;51.206;3.326;2024-03-06T05:46:17;7.20;99.90
44990;DHT22;30723;51.206;3.326;2024-03-06T05:48:45;7.30;99.90
44990;DHT22;30723;51.206;3.326;2024-03-06T05:51:10;7.30;99.90
44990;DHT22;30723;51.206;3.326;2024-03-06T05:53:37;7.20;99.90
44990;DHT22;30723;51.206;3.326;2024-03-06T05:56:05;7.10;99.90
44990;DHT22;30723;51.206;3.326;2024-03-06T05:58:31;7.10;99.90
44990;DHT22;30723;51.206;3.326;2024-03-06T06:00:57;7.10;99.90
44990;DHT22;30723;51.206;3.326;2024-03-06T06:03:23;7.10;99.90
44990;DHT22;30723;51.206;3.326;2024-03-06T06:05:48;7.10;99.90
44990;DHT22;30723;51.206;3.326;2024-03-06T06:08:14;7.10;99.90
44990;DHT22;30723;51.206;3.326;2024-03-06T06:10:40;7.20;99.90
44990;DHT22;30723;51.206;3.326;2024-03-06T06:13:06;7.20;99.90
44990;DHT22;30723;51.206;3.326;2024-03-06T06:15:32;7.10;99.90
44990;DHT22;30723;51.206;3.326;2024-03-06T06:17:57;7.00;99.90
44990;DHT22;30723;51.206;3.326;2024-03-06T06:20:23;7.00;99.90
44990;DHT22;30723;51.206;3.326;2024-03-06T06:22:49;7.00;99.90
44990;DHT22;30723;51.206;3.326;2024-03-06T06:25:15;7.10;99.90
44990;DHT22;30723;51.206;3.326;2024-03-06T06:27:41;7.10;99.90
44990;DHT22;30723;51.206;3.326;2024-03-06T06:30:07;7.10;99.90
44990;DHT22;30723;51.206;3.326;2024-03-06T06:32:39;7.00;99.90
44990;DHT22;30723;51.206;3.326;2024-03-06T06:35:06;7.20;99.90
44990;DHT22;30723;51.206;3.326;2024-03-06T06:37:32;7.20;99.90
44990;DHT22;30723;51.206;3.326;2024-03-06T06:39:58;7.20;99.90
44990;DHT22;30723;51.206;3.326;2024-03-06T06:42:24;7.30;99.90
44990;DHT22;30723;51.206;3.326;2024-03-06T06:44:50;7.20;99.90
44990;DHT22;30723;51.206;3.326;2024-03-06T06:47:18;7.20;99.90
44990;DHT22;30723;51.206;3.326;2024-03-06T06:49:44;7.20;99.90
44990;DHT22;30723;51.206;3.326;2024-03-06T06:52:10;7.20;99.90
44990;DHT22;30723;51.206;3.326;2024-03-06T06:54:36;7.10;99.90
44990;DHT22;30723;51.206;3.326;2024-03-06T06:57:01;7.10;99.90
44990;DHT22;30723;51.206;3.326;2024-03-06T06:59:28;7.10;99.90
44990;DHT22;30723;51.206;3.326;2024-03-06T07:01:54;7.00;99.90
44990;DHT22;30723;51.206;3.326;2024-03-06T07:04:20;7.00;99.90
44990;DHT22;30723;51.206;3.326;2024-03-06T07:06:46;7.00;99.90
44990;DHT22;30723;51.206;3.326;2024-03-06T07:09:12;7.00;99.90
44990;DHT22;30723;51.206;3.326;2024-03-06T07:11:41;7.00;99.90
44990;DHT22;30723;51.206;3.326;2024-03-06T07:14:08;7.00;99.90
44990;DHT22;30723;51.206;3.326;2024-03-06T07:16:33;7.00;99.90
44990;DHT22;30723;51.206;3.326;2024-03-06T07:18:59;7.00;99.90
44990;DHT22;30723;51.206;3.326;2024-03-06T07:21:25;7.00;99.90
44990;DHT22;30723;51.206;3.326;2024-03-06T07:23:51;7.10;99.90
44990;DHT22;30723;51.206;3.326;2024-03-06T07:26:17;7.10;99.90
44990;DHT22;30723;51.206;3.326;2024-03-06T07:28:42;7.20;99.90
44990;DHT22;30723;51.206;3.326;2024-03-06T07:31:08;7.00;99.90
44990;DHT22;30723;51.206;3.326;2024-03-06T07:33:34;7.10;99.90
44990;DHT22;30723;51.206;3.326;2024-03-06T07:36:03;7.10;99.90
44990;DHT22;30723;51.206;3.326;2024-03-06T07:38:29;7.00;99.90
44990;DHT22;30723;51.206;3.326;2024-03-06T07:40:55;6.90;99.90
44990;DHT22;30723;51.206;3.326;2024-03-06T07:43:20;7.00;99.90
44990;DHT22;30723;51.206;3.326;2024-03-06T07:45:46;6.90;99.90
44990;DHT22;30723;51.206;3.326;2024-03-06T07:48:14;7.00;99.90
44990;DHT22;30723;51.206;3.326;2024-03-06T07:50:40;7.00;99.90
44990;DHT22;30723;51.206;3.326;2024-03-06T07:53:06;7.00;99.90
44990;DHT22;30723;51.206;3.326;2024-03-06T07:55:32;7.00;99.90
44990;DHT22;30723;51.206;3.326;2024-03-06T07:57:57;7.10;99.90
44990;DHT22;30723;51.206;3.326;2024-03-06T08:00:23;7.20;99.90
44990;DHT22;30723;51.206;3.326;2024-03-06T08:02:49;7.30;99.90
44990;DHT22;30723;51.206;3.326;2024-03-06T08:05:18;7.30;99.90
44990;DHT22;30723;51.206;3.326;2024-03-06T08:07:44;7.30;99.90
44990;DHT22;30723;51.206;3.326;2024-03-06T08:10:12;7.40;99.90
44990;DHT22;30723;51.206;3.326;2024-03-06T08:12:41;7.30;99.90
44990;DHT22;30723;51.206;3.326;2024-03-06T08:15:12;7.30;99.90
44990;DHT22;30723;51.206;3.326;2024-03-06T08:17:40;7.30;99.90
44990;DHT22;30723;51.206;3.326;2024-03-06T08:20:08;7.40;99.90
44990;DHT22;30723;51.206;3.326;2024-03-06T08:22:36;7.40;99.90
44990;DHT22;30723;51.206;3.326;2024-03-06T08:25:11;7.50;99.90
44990;DHT22;30723;51.206;3.326;2024-03-06T08:27:40;7.60;99.90
44990;DHT22;30723;51.206;3.326;2024-03-06T08:30:06;7.70;99.90
44990;DHT22;30723;51.206;3.326;2024-03-06T08:32:33;7.80;99.90
44990;DHT22;30723;51.206;3.326;2024-03-06T08:35:04;7.70;99.90
44990;DHT22;30723;51.206;3.326;2024-03-06T08:37:33;7.80;99.90
44990;DHT22;30723;51.206;3.326;2024-03-06T08:40:02;7.80;99.90
44990;DHT22;30723;51.206;3.326;2024-03-06T08:42:28;7.80;99.90
44990;DHT22;30723;51.206;3.326;2024-03-06T08:44:54;7.80;99.90
44990;DHT22;30723;51.206;3.326;2024-03-06T08:47:20;7.90;99.90
44990;DHT22;30723;51.206;3.326;2024-03-06T08:49:46;8.00;99.90
44990;DHT22;30723;51.206;3.326;2024-03-06T08:52:12;8.10;99.90
44990;DHT22;30723;51.206;3.326;2024-03-06T08:54:39;8.30;99.90
44990;DHT22;30723;51.206;3.326;2024-03-06T08:57:07;8.30;99.90
44990;DHT22;30723;51.206;3.326;2024-03-06T08:59:34;8.40;99.90
44990;DHT22;30723;51.206;3.326;2024-03-06T09:02:12;8.40;99.90
44990;DHT22;30723;51.206;3.326;2024-03-06T09:04:39;8.60;99.90
44990;DHT22;30723;51.206;3.326;2024-03-06T09:07:05;8.70;99.90
44990;DHT22;30723;51.206;3.326;2024-03-06T09:09:31;8.80;99.90
44990;DHT22;30723;51.206;3.326;2024-03-06T09:12:03;8.80;99.90
44990;DHT22;30723;51.206;3.326;2024-03-06T09:14:31;8.90;99.90
44990;DHT22;30723;51.206;3.326;2024-03-06T09:16:57;8.90;99.90
44990;DHT22;30723;51.206;3.326;2024-03-06T09:19:23;8.90;99.90
44990;DHT22;30723;51.206;3.326;2024-03-06T09:21:49;9.00;99.90
44990;DHT22;30723;51.206;3.326;2024-03-06T09:24:15;9.10;99.90
44990;DHT22;30723;51.206;3.326;2024-03-06T09:26:40;9.10;99.90
44990;DHT22;30723;51.206;3.326;2024-03-06T09:29:06;9.10;99.90
44990;DHT22;30723;51.206;3.326;2024-03-06T09:31:32;9.10;99.90
44990;DHT22;30723;51.206;3.326;2024-03-06T09:33:57;9.20;99.90
44990;DHT22;30723;51.206;3.326;2024-03-06T09:36:24;9.10;99.90
44990;DHT22;30723;51.206;3.326;2024-03-06T09:38:51;9.20;99.90
44990;DHT22;30723;51.206;3.326;2024-03-06T09:41:18;9.20;99.90
44990;DHT22;30723;51.206;3.326;2024-03-06T09:43:44;9.40;99.90
44990;DHT22;30723;51.206;3.326;2024-03-06T09:46:10;9.70;99.90
44990;DHT22;30723;51.206;3.326;2024-03-06T09:48:46;10.00;99.90
44990;DHT22;30723;51.206;3.326;2024-03-06T09:51:11;10.20;99.90
44990;DHT22;30723;51.206;3.326;2024-03-06T09:53:38;10.50;99.90
44990;DHT22;30723;51.206;3.326;2024-03-06T09:56:05;10.70;99.90
44990;DHT22;30723;51.206;3.326;2024-03-06T09:58:31;10.70;99.90
44990;DHT22;30723;51.206;3.326;2024-03-06T10:00:59;10.60;99.90
44990;DHT22;30723;51.206;3.326;2024-03-06T10:03:26;10.50;99.90
44990;DHT22;30723;51.206;3.326;2024-03-06T10:05:52;10.40;99.90
44990;DHT22;30723;51.206;3.326;2024-03-06T10:08:20;10.60;99.90
44990;DHT22;30723;51.206;3.326;2024-03-06T10:10:50;10.80;99.90
44990;DHT22;30723;51.206;3.326;2024-03-06T10:13:17;11.20;99.90
44990;DHT22;30723;51.206;3.326;2024-03-06T10:15:59;11.50;99.90
44990;DHT22;30723;51.206;3.326;2024-03-06T10:18:29;12.10;99.90
44990;DHT22;30723;51.206;3.326;2024-03-06T10:20:55;13.30;99.90
44990;DHT22;30723;51.206;3.326;2024-03-06T10:23:21;14.30;99.90
44990;DHT22;30723;51.206;3.326;2024-03-06T10:25:49;15.00;99.90
44990;DHT22;30723;51.206;3.326;2024-03-06T10:28:19;15.40;99.90
44990;DHT22;30723;51.206;3.326;2024-03-06T10:30:45;15.80;99.90
44990;DHT22;30723;51.206;3.326;2024-03-06T10:33:12;16.80;99.90
44990;DHT22;30723;51.206;3.326;2024-03-06T10:35:43;18.00;99.90
44990;DHT22;30723;51.206;3.326;2024-03-06T10:38:10;18.70;99.90
44990;DHT22;30723;51.206;3.326;2024-03-06T10:40:40;19.10;99.90
44990;DHT22;30723;51.206;3.326;2024-03-06T10:43:07;19.40;99.90
44990;DHT22;30723;51.206;3.326;2024-03-06T10:45:48;19.40;99.90
44990;DHT22;30723;51.206;3.326;2024-03-06T10:48:14;19.40;99.90
44990;DHT22;30723;51.206;3.326;2024-03-06T10:50:42;19.70;99.90
44990;DHT22;30723;51.206;3.326;2024-03-06T10:53:15;20.20;99.90
44990;DHT22;30723;51.206;3.326;2024-03-06T10:55:43;20.30;99.90
44990;DHT22;30723;51.206;3.326;2024-03-06T10:58:13;20.10;99.90
44990;DHT22;30723;51.206;3.326;2024-03-06T11:00:40;19.80;99.90
44990;DHT22;30723;51.206;3.326;2024-03-06T11:03:08;19.80;99.90
44990;DHT22;30723;51.206;3.326;2024-03-06T11:05:37;21.10;99.90
44990;DHT22;30723;51.206;3.326;2024-03-06T11:08:15;21.60;99.90
44990;DHT22;30723;51.206;3.326;2024-03-06T11:10:43;21.70;99.90
44990;DHT22;30723;51.206;3.326;2024-03-06T11:15:48;21.90;99.90
44990;DHT22;30723;51.206;3.326;2024-03-06T11:23:25;23.90;99.90
44990;DHT22;30723;51.206;3.326;2024-03-06T11:28:21;25.60;98.50
44990;DHT22;30723;51.206;3.326;2024-03-06T11:33:14;26.40;96.00
44990;DHT22;30723;51.206;3.326;2024-03-06T11:35:42;27.10;94.20
44990;DHT22;30723;51.206;3.326;2024-03-06T11:38:17;27.20;93.50
44990;DHT22;30723;51.206;3.326;2024-03-06T11:40:43;27.50;91.50
44990;DHT22;30723;51.206;3.326;2024-03-06T11:43:25;27.30;88.30
44990;DHT22;30723;51.206;3.326;2024-03-06T11:45:52;27.20;89.70
44990;DHT22;30723;51.206;3.326;2024-03-06T11:48:18;27.80;87.30
44990;DHT22;30723;51.206;3.326;2024-03-06T11:50:47;28.00;85.00
44990;DHT22;30723;51.206;3.326;2024-03-06T11:53:16;27.90;84.50
44990;DHT22;30723;51.206;3.326;2024-03-06T11:55:43;26.30;83.60
44990;DHT22;30723;51.206;3.326;2024-03-06T11:58:08;24.20;87.90
44990;DHT22;30723;51.206;3.326;2024-03-06T12:00:37;22.30;92.60
44990;DHT22;30723;51.206;3.326;2024-03-06T12:03:03;20.60;96.40
44990;DHT22;30723;51.206;3.326;2024-03-06T12:05:31;19.50;99.80
44990;DHT22;30723;51.206;3.326;2024-03-06T12:07:57;18.60;99.90
44990;DHT22;30723;51.206;3.326;2024-03-06T12:10:22;18.00;99.90
44990;DHT22;30723;51.206;3.326;2024-03-06T12:12:48;17.10;99.90
44990;DHT22;30723;51.206;3.326;2024-03-06T12:15:14;16.70;99.90
44990;DHT22;30723;51.206;3.326;2024-03-06T12:17:48;16.50;99.90
44990;DHT22;30723;51.206;3.326;2024-03-06T12:20:16;17.50;99.90
44990;DHT22;30723;51.206;3.326;2024-03-06T12:22:56;20.40;99.90
44990;DHT22;30723;51.206;3.326;2024-03-06T12:25:23;24.10;99.90
44990;DHT22;30723;51.206;3.326;2024-03-06T12:27:50;26.70;97.50
44990;DHT22;30723;51.206;3.326;2024-03-06T12:30:20;27.60;90.30
44990;DHT22;30723;51.206;3.326;2024-03-06T12:32:59;25.70;89.20
44990;DHT22;30723;51.206;3.326;2024-03-06T12:35:26;24.30;91.30
44990;DHT22;30723;51.206;3.326;2024-03-06T12:37:52;22.50;93.10
44990;DHT22;30723;51.206;3.326;2024-03-06T12:40:19;21.40;98.50
44990;DHT22;30723;51.206;3.326;2024-03-06T12:42:44;22.20;99.90
44990;DHT22;30723;51.206;3.326;2024-03-06T12:45:12;24.30;95.90
44990;DHT22;30723;51.206;3.326;2024-03-06T12:47:41;23.90;94.40
44990;DHT22;30723;51.206;3.326;2024-03-06T12:50:08;22.20;96.70
44990;DHT22;30723;51.206;3.326;2024-03-06T12:52:34;21.50;98.40
44990;DHT22;30723;51.206;3.326;2024-03-06T12:55:00;22.20;99.10
44990;DHT22;30723;51.206;3.326;2024-03-06T12:57:26;22.70;96.10
44990;DHT22;30723;51.206;3.326;2024-03-06T12:59:53;22.90;95.30
44990;DHT22;30723;51.206;3.326;2024-03-06T13:02:19;21.90;96.10
44990;DHT22;30723;51.206;3.326;2024-03-06T13:04:47;20.90;96.40
44990;DHT22;30723;51.206;3.326;2024-03-06T13:07:14;20.10;97.90
44990;DHT22;30723;51.206;3.326;2024-03-06T13:09:40;19.40;99.90
44990;DHT22;30723;51.206;3.326;2024-03-06T13:12:06;19.20;99.90
44990;DHT22;30723;51.206;3.326;2024-03-06T13:14:32;18.80;99.90
44990;DHT22;30723;51.206;3.326;2024-03-06T13:16:59;18.60;99.90
44990;DHT22;30723;51.206;3.326;2024-03-06T13:19:25;18.00;99.90
44990;DHT22;30723;51.206;3.326;2024-03-06T13:21:50;17.50;99.90
44990;DHT22;30723;51.206;3.326;2024-03-06T13:24:18;17.10;99.90
44990;DHT22;30723;51.206;3.326;2024-03-06T13:26:45;16.60;99.90
44990;DHT22;30723;51.206;3.326;2024-03-06T13:29:12;16.10;99.90
44990;DHT22;30723;51.206;3.326;2024-03-06T13:31:38;15.90;99.90
44990;DHT22;30723;51.206;3.326;2024-03-06T13:34:04;15.70;99.90
44990;DHT22;30723;51.206;3.326;2024-03-06T13:36:30;15.40;99.90
44990;DHT22;30723;51.206;3.326;2024-03-06T13:38:56;15.30;99.90
44990;DHT22;30723;51.206;3.326;2024-03-06T13:41:22;15.30;99.90
44990;DHT22;30723;51.206;3.326;2024-03-06T13:43:48;15.80;99.90
44990;DHT22;30723;51.206;3.326;2024-03-06T13:46:14;16.00;99.90
44990;DHT22;30723;51.206;3.326;2024-03-06T13:48:40;16.00;99.90
44990;DHT22;30723;51.206;3.326;2024-03-06T13:51:06;16.10;99.90
44990;DHT22;30723;51.206;3.326;2024-03-06T13:53:32;15.70;99.90
44990;DHT22;30723;51.206;3.326;2024-03-06T13:55:58;15.30;99.90
44990;DHT22;30723;51.206;3.326;2024-03-06T13:58:24;15.00;99.90
44990;DHT22;30723;51.206;3.326;2024-03-06T14:00:51;14.70;99.90
44990;DHT22;30723;51.206;3.326;2024-03-06T14:03:17;14.30;99.90
44990;DHT22;30723;51.206;3.326;2024-03-06T14:05:43;14.10;99.90
44990;DHT22;30723;51.206;3.326;2024-03-06T14:08:09;14.30;99.90
44990;DHT22;30723;51.206;3.326;2024-03-06T14:10:38;14.60;99.90
44990;DHT22;30723;51.206;3.326;2024-03-06T14:13:04;14.70;99.90
44990;DHT22;30723;51.206;3.326;2024-03-06T14:15:32;15.70;99.90
44990;DHT22;30723;51.206;3.326;2024-03-06T14:17:58;17.50;99.90
44990;DHT22;30723;51.206;3.326;2024-03-06T14:20:24;19.10;99.90
44990;DHT22;30723;51.206;3.326;2024-03-06T14:22:50;19.90;99.90
44990;DHT22;30723;51.206;3.326;2024-03-06T14:25:16;19.90;99.90
44990;DHT22;30723;51.206;3.326;2024-03-06T14:27:43;20.60;99.90
44990;DHT22;30723;51.206;3.326;2024-03-06T14:30:09;22.40;93.10
44990;DHT22;30723;51.206;3.326;2024-03-06T14:32:40;23.60;90.00
44990;DHT22;30723;51.206;3.326;2024-03-06T14:35:06;24.70;87.70
44990;DHT22;30723;51.206;3.326;2024-03-06T14:37:32;25.40;78.90
44990;DHT22;30723;51.206;3.326;2024-03-06T14:39:58;24.20;85.10
44990;DHT22;30723;51.206;3.326;2024-03-06T14:42:24;23.40;91.60
44990;DHT22;30723;51.206;3.326;2024-03-06T14:44:50;23.10;93.60
44990;DHT22;30723;51.206;3.326;2024-03-06T14:47:15;21.40;97.60
44990;DHT22;30723;51.206;3.326;2024-03-06T14:49:44;20.70;99.40
44990;DHT22;30723;51.206;3.326;2024-03-06T14:52:11;21.30;99.90
44990;DHT22;30723;51.206;3.326;2024-03-06T14:54:38;20.60;99.90
44990;DHT22;30723;51.206;3.326;2024-03-06T14:57:04;20.60;99.90
44990;DHT22;30723;51.206;3.326;2024-03-06T14:59:31;20.80;99.90
44990;DHT22;30723;51.206;3.326;2024-03-06T15:01:57;20.10;99.90
44990;DHT22;30723;51.206;3.326;2024-03-06T15:04:22;19.10;99.90
44990;DHT22;30723;51.206;3.326;2024-03-06T15:06:49;20.10;99.90
44990;DHT22;30723;51.206;3.326;2024-03-06T15:09:16;20.80;99.90
44990;DHT22;30723;51.206;3.326;2024-03-06T15:11:48;21.80;99.70
44990;DHT22;30723;51.206;3.326;2024-03-06T15:14:14;21.90;99.90
44990;DHT22;30723;51.206;3.326;2024-03-06T15:16:39;22.10;98.00
44990;DHT22;30723;51.206;3.326;2024-03-06T15:19:06;21.80;97.60
44990;DHT22;30723;51.206;3.326;2024-03-06T15:21:32;21.90;97.00
44990;DHT22;30723;51.206;3.326;2024-03-06T15:23:57;22.10;97.90
44990;DHT22;30723;51.206;3.326;2024-03-06T15:26:23;21.70;98.30
44990;DHT22;30723;51.206;3.326;2024-03-06T15:28:49;22.00;97.30
44990;DHT22;30723;51.206;3.326;2024-03-06T15:31:15;22.00;97.80
44990;DHT22;30723;51.206;3.326;2024-03-06T15:33:41;22.20;98.20
44990;DHT22;30723;51.206;3.326;2024-03-06T15:36:07;22.10;95.70
44990;DHT22;30723;51.206;3.326;2024-03-06T15:38:33;22.10;96.40
44990;DHT22;30723;51.206;3.326;2024-03-06T15:40:59;21.70;94.30
44990;DHT22;30723;51.206;3.326;2024-03-06T15:43:25;20.60;94.60
44990;DHT22;30723;51.206;3.326;2024-03-06T15:45:51;21.30;93.40
44990;DHT22;30723;51.206;3.326;2024-03-06T15:48:17;20.80;92.10
44990;DHT22;30723;51.206;3.326;2024-03-06T15:50:43;19.30;94.70